Minerva Zenia — SYNB — position and weather

sailwx.info

Track history (hours):
 
Tides and Currents Weather Stations Pressure Air Temp Water Temp Dewpoint Dewpoint Depression Visibility Wind Speed Wind Dir Waves Ship Positions

Minerva Zenia

Last reported at 2016-Jul-29 07:04 UTC. Time now 2016-Jul-29 17:56 UTC.
Position N 36°03' W 009°49'.

Length 248 m; draft 13.5 m.

Type: Tanker. MMSI: 240014000.

Date/timePositionNaut miles runAvg speedWind from/ knotsBaromVisibWave heightAir tempDewpointWater temp
2016-Jul-29 07:04N 36°03' W 009°49'912.2
2016-Jul-29 06:21N 36°03' W 009°38'1012.2
2016-Jul-29 05:33N 36°02' W 009°26'1212.1
2016-Jul-29 04:33N 36°00' W 009°11'1312.4
2016-Jul-29 03:33N 35°59' W 008°56'1312.6
2016-Jul-29 02:33N 35°57' W 008°40'1312.6
2016-Jul-29 01:33N 35°57' W 008°25'13812.5
2016-Jul-28 14:31N 35°59' W 005°34'9 9.8
2016-Jul-28 13:33N 36°01' W 005°23'17012.0
2016-Jul-27 23:22N 36°28' W 001°55'1113.2
2016-Jul-27 22:33N 36°30' W 001°42'1312.8
2016-Jul-27 21:33N 36°33' W 001°26'1313.0
2016-Jul-27 20:33N 36°34' W 001°11'1313.0
2016-Jul-27 19:33N 36°37' W 000°55'1312.5
2016-Jul-27 18:33N 36°39' W 000°39'1211.9
2016-Jul-27 17:33N 36°41' W 000°25'1212.3
2016-Jul-27 16:33N 36°43' W 000°09'1212.2
2016-Jul-27 15:33N 36°45' E 000°06'1312.7
2016-Jul-27 14:32N 36°47' E 000°21'1212.6
2016-Jul-27 13:33N 36°49' E 000°37'1312.5
2016-Jul-27 12:32N 36°52' E 000°52'9 9.5
2016-Jul-27 11:33N 36°53' E 001°04'1212.2
2016-Jul-27 10:32N 36°54' E 001°19'1212.1
2016-Jul-27 09:33N 36°56' E 001°34'1212.4
2016-Jul-27 08:33N 36°58' E 001°49'1312.5
2016-Jul-27 07:33N 37°01' E 002°04'1312.8
2016-Jul-27 06:33N 37°04' E 002°20'1312.8
2016-Jul-27 05:33N 37°07' E 002°36'1312.7
2016-Jul-27 04:32N 37°09' E 002°52'1212.6
2016-Jul-27 03:33N 37°11' E 003°07'1212.2
2016-Jul-27 02:33N 37°13' E 003°22'1212.0
2016-Jul-27 01:33N 37°14' E 003°37'1212.0
2016-Jul-27 00:33N 37°15' E 003°52'1812.6
2016-Jul-26 23:09N 37°18' E 004°14'43411.4
2016-Jul-25 09:14N 36°46' E 013°16'811.6
2016-Jul-25 08:33N 36°44' E 013°26'1212.0
2016-Jul-25 07:33N 36°40' E 013°40'1211.6
2016-Jul-25 06:33N 36°37' E 013°54'1111.0
2016-Jul-25 05:33N 36°34' E 014°07'1211.7
2016-Jul-25 04:33N 36°31' E 014°21'1212.1
2016-Jul-25 03:33N 36°28' E 014°36'1212.3
2016-Jul-25 02:33N 36°27' E 014°51'1312.2
2016-Jul-25 01:32N 36°27' E 015°07'4912.4
2016-Jul-24 21:33N 36°29' E 016°08'1410.0
2016-Jul-24 20:12N 36°26' E 016°24'36710.5
2016-Jul-23 09:16N 37°13' E 023°60'3613.3
2016-Jul-23 06:31N 37°41' E 024°29'8912.5
2016-Jul-22 23:26N 39°02' E 025°16'4912.6
2016-Jul-22 19:32N 39°44' E 025°49'7 1.4
2016-Jul-22 14:18N 39°50' E 025°54'7 9.2
2016-Jul-22 13:33N 39°57' E 025°54'  
Track history (hours):
 
Tides and Currents Weather Stations Pressure Air Temp Water Temp Dewpoint Dewpoint Depression Visibility Wind Speed Wind Dir Waves Ship Positions

Minerva Zenia

Last reported at 2016-Jul-29 07:04 UTC. Time now 2016-Jul-29 17:56 UTC.
Position N 36°03' W 009°49'.

Length 248 m; draft 13.5 m.

Type: Tanker. MMSI: 240014000.

Date/timePositionNaut miles runAvg speedWind from/ knotsBaromVisibWave heightAir tempDewpointWater temp
2016-Jul-29 07:04N 36°03' W 009°49'912.2
2016-Jul-29 06:21N 36°03' W 009°38'1012.2
2016-Jul-29 05:33N 36°02' W 009°26'1212.1
2016-Jul-29 04:33N 36°00' W 009°11'1312.4
2016-Jul-29 03:33N 35°59' W 008°56'1312.6
2016-Jul-29 02:33N 35°57' W 008°40'1312.6
2016-Jul-29 01:33N 35°57' W 008°25'13812.5
2016-Jul-28 14:31N 35°59' W 005°34'9 9.8
2016-Jul-28 13:33N 36°01' W 005°23'17012.0
2016-Jul-27 23:22N 36°28' W 001°55'1113.2
2016-Jul-27 22:33N 36°30' W 001°42'1312.8
2016-Jul-27 21:33N 36°33' W 001°26'1313.0
2016-Jul-27 20:33N 36°34' W 001°11'1313.0
2016-Jul-27 19:33N 36°37' W 000°55'1312.5
2016-Jul-27 18:33N 36°39' W 000°39'1211.9
2016-Jul-27 17:33N 36°41' W 000°25'1212.3
2016-Jul-27 16:33N 36°43' W 000°09'1212.2
2016-Jul-27 15:33N 36°45' E 000°06'1312.7
2016-Jul-27 14:32N 36°47' E 000°21'1212.6
2016-Jul-27 13:33N 36°49' E 000°37'1312.5
2016-Jul-27 12:32N 36°52' E 000°52'9 9.5
2016-Jul-27 11:33N 36°53' E 001°04'1212.2
2016-Jul-27 10:32N 36°54' E 001°19'1212.1
2016-Jul-27 09:33N 36°56' E 001°34'1212.4
2016-Jul-27 08:33N 36°58' E 001°49'1312.5
2016-Jul-27 07:33N 37°01' E 002°04'1312.8
2016-Jul-27 06:33N 37°04' E 002°20'1312.8
2016-Jul-27 05:33N 37°07' E 002°36'1312.7
2016-Jul-27 04:32N 37°09' E 002°52'1212.6
2016-Jul-27 03:33N 37°11' E 003°07'1212.2
2016-Jul-27 02:33N 37°13' E 003°22'1212.0
2016-Jul-27 01:33N 37°14' E 003°37'1212.0
2016-Jul-27 00:33N 37°15' E 003°52'1812.6
2016-Jul-26 23:09N 37°18' E 004°14'43411.4
2016-Jul-25 09:14N 36°46' E 013°16'811.6
2016-Jul-25 08:33N 36°44' E 013°26'1212.0
2016-Jul-25 07:33N 36°40' E 013°40'1211.6
2016-Jul-25 06:33N 36°37' E 013°54'1111.0
2016-Jul-25 05:33N 36°34' E 014°07'1211.7
2016-Jul-25 04:33N 36°31' E 014°21'1212.1
2016-Jul-25 03:33N 36°28' E 014°36'1212.3
2016-Jul-25 02:33N 36°27' E 014°51'1312.2
2016-Jul-25 01:32N 36°27' E 015°07'4912.4
2016-Jul-24 21:33N 36°29' E 016°08'1410.0
2016-Jul-24 20:12N 36°26' E 016°24'36710.5
2016-Jul-23 09:16N 37°13' E 023°60'3613.3
2016-Jul-23 06:31N 37°41' E 024°29'8912.5
2016-Jul-22 23:26N 39°02' E 025°16'4912.6
2016-Jul-22 19:32N 39°44' E 025°49'7 1.4
2016-Jul-22 14:18N 39°50' E 025°54'7 9.2
2016-Jul-22 13:33N 39°57' E 025°54'  

Dump ship's entire track history